Time;durP1;ratioP1;P1;durP2;ratioP2;P2;SDS_P1;SDS_P2;PMS_P1;PMS_P2;Temp;Humidity;BMP_temperature;BMP_pressure;BME280_temperature;BME280_humidity;BME280_pressure;Samples;Min_cycle;Max_cycle;Signal;HPM_P1;HPM_P2
2023/07/30 00:00:02;;;;;;;1.23;1.13;;;;;17.90;95636.00;;;;5033670;28;20192;-58
2023/07/30 00:02:30;;;;;;;0.57;0.57;;;;;17.90;95645.00;;;;5034209;28;20202;-58
2023/07/30 00:04:57;;;;;;;1.20;1.17;;;;;17.90;95625.00;;;;5033662;28;20197;-59
2023/07/30 00:07:26;;;;;;;0.97;0.97;;;;;17.80;95642.00;;;;5033401;28;20323;-58
2023/07/30 00:09:54;;;;;;;0.70;0.70;;;;;17.80;95644.00;;;;5034180;28;20735;-60
2023/07/30 00:12:21;;;;;;;1.17;1.10;;;;;17.70;95649.00;;;;5033640;28;20262;-59
2023/07/30 00:14:48;;;;;;;1.00;1.00;;;;;17.60;95645.00;;;;5033659;28;20283;-59
2023/07/30 00:17:16;;;;;;;0.30;0.30;;;;;17.70;95651.00;;;;5033660;28;20213;-58
2023/07/30 00:19:43;;;;;;;0.50;0.50;;;;;17.60;95644.00;;;;5033406;28;20189;-59
2023/07/30 00:22:11;;;;;;;0.70;0.70;;;;;17.60;95651.00;;;;5033216;28;20193;-58
2023/07/30 00:24:39;;;;;;;0.40;0.40;;;;;17.70;95656.00;;;;5033363;28;20212;-59
2023/07/30 00:27:10;;;;;;;0.53;0.53;;;;;17.70;95667.00;;;;5033227;28;20221;-58
2023/07/30 00:29:37;;;;;;;0.70;0.70;;;;;17.70;95665.00;;;;5033332;28;20200;-59
2023/07/30 00:32:05;;;;;;;0.67;0.67;;;;;17.70;95665.00;;;;5036732;28;20192;-58
2023/07/30 00:34:33;;;;;;;0.80;0.80;;;;;17.60;95655.00;;;;5037498;28;20199;-59
2023/07/30 00:37:00;;;;;;;1.33;1.23;;;;;17.60;95661.00;;;;5037482;28;20223;-58
2023/07/30 00:39:28;;;;;;;1.00;1.00;;;;;17.60;95656.00;;;;5038247;28;20192;-60
2023/07/30 00:41:56;;;;;;;1.07;1.00;;;;;17.50;95657.00;;;;5037341;28;20671;-58
2023/07/30 00:44:24;;;;;;;1.07;1.00;;;;;17.40;95656.00;;;;5037506;28;20192;-59
2023/07/30 00:46:52;;;;;;;0.50;0.50;;;;;17.30;95661.00;;;;5037073;28;20267;-58
2023/07/30 00:49:19;;;;;;;1.13;1.13;;;;;17.40;95660.00;;;;5037125;28;20213;-59
2023/07/30 00:51:47;;;;;;;0.70;0.70;;;;;17.40;95660.00;;;;5037266;28;20566;-58
2023/07/30 00:54:15;;;;;;;1.23;1.23;;;;;17.40;95669.00;;;;5037064;28;20212;-58
2023/07/30 00:56:53;;;;;;;0.87;0.87;;;;;17.50;95672.00;;;;5036763;28;20216;-58
2023/07/30 00:59:22;;;;;;;2.43;1.03;;;;;17.40;95664.00;;;;5037105;28;20176;-59
2023/07/30 01:01:51;;;;;;;0.63;0.63;;;;;17.30;95660.00;;;;5036975;28;20656;-58
2023/07/30 01:04:19;;;;;;;1.13;1.03;;;;;17.30;95660.00;;;;5036886;28;20240;-59
2023/07/30 01:06:46;;;;;;;0.93;0.93;;;;;17.10;95644.00;;;;5037145;28;20227;-58
2023/07/30 01:09:14;;;;;;;0.50;0.50;;;;;17.10;95653.00;;;;5036957;28;20585;-58
2023/07/30 01:11:43;;;;;;;0.50;0.50;;;;;17.10;95653.00;;;;5036632;28;20192;-59
2023/07/30 01:14:11;;;;;;;0.67;0.63;;;;;17.00;95649.00;;;;5037078;28;20652;-59
2023/07/30 01:16:40;;;;;;;0.43;0.43;;;;;17.00;95652.00;;;;5036757;28;20223;-58
2023/07/30 01:19:08;;;;;;;0.80;0.80;;;;;17.00;95653.00;;;;5036649;28;20559;-58
2023/07/30 01:21:38;;;;;;;0.50;0.50;;;;;17.00;95657.00;;;;5036648;28;20201;-59
2023/07/30 01:24:05;;;;;;;1.30;1.27;;;;;16.90;95660.00;;;;5036431;28;20185;-58
2023/07/30 01:26:36;;;;;;;0.67;0.67;;;;;16.90;95661.00;;;;5036528;28;20211;-58
2023/07/30 01:29:07;;;;;;;0.70;0.70;;;;;17.00;95665.00;;;;5037082;28;20679;-60
2023/07/30 01:31:38;;;;;;;0.80;0.80;;;;;17.10;95672.00;;;;5036687;28;20539;-58
2023/07/30 01:34:08;;;;;;;0.80;0.80;;;;;17.10;95662.00;;;;5036537;28;20195;-58
2023/07/30 01:36:38;;;;;;;0.33;0.33;;;;;17.10;95664.00;;;;5036134;28;20220;-58
2023/07/30 01:39:05;;;;;;;0.50;0.50;;;;;17.10;95656.00;;;;5036609;28;20536;-58
2023/07/30 01:41:33;;;;;;;0.50;0.50;;;;;17.20;95662.00;;;;5036461;28;20200;-58
2023/07/30 01:44:00;;;;;;;0.57;0.57;;;;;17.20;95662.00;;;;5036669;28;20204;-58
2023/07/30 01:46:28;;;;;;;0.50;0.50;;;;;17.20;95680.00;;;;5035922;28;20239;-59
2023/07/30 01:48:55;;;;;;;0.70;0.70;;;;;17.20;95669.00;;;;5035918;28;20223;-58
2023/07/30 01:51:22;;;;;;;0.50;0.50;;;;;17.10;95674.00;;;;5035839;28;20204;-59
2023/07/30 01:53:51;;;;;;;0.60;0.60;;;;;17.00;95664.00;;;;5035981;28;20205;-59
2023/07/30 01:56:19;;;;;;;0.70;0.70;;;;;17.10;95661.00;;;;5035856;28;20217;-59
2023/07/30 01:58:46;;;;;;;1.10;1.10;;;;;17.10;95661.00;;;;5035921;28;20192;-59
2023/07/30 02:01:13;;;;;;;0.80;0.80;;;;;17.10;95653.00;;;;5035814;28;20193;-59
2023/07/30 02:03:43;;;;;;;0.70;0.70;;;;;17.10;95657.00;;;;5035759;28;20228;-57
2023/07/30 02:06:11;;;;;;;0.67;0.67;;;;;17.10;95653.00;;;;5035551;28;20213;-58
2023/07/30 02:08:39;;;;;;;0.50;0.50;;;;;17.10;95658.00;;;;5035702;28;20309;-58
2023/07/30 02:11:08;;;;;;;0.53;0.53;;;;;17.10;95669.00;;;;5036290;28;20200;-58
2023/07/30 02:13:35;;;;;;;0.77;0.77;;;;;17.00;95662.00;;;;5035792;28;20193;-59
2023/07/30 02:16:03;;;;;;;0.40;0.40;;;;;17.00;95665.00;;;;5035447;28;20212;-58
2023/07/30 02:18:30;;;;;;;0.60;0.60;;;;;17.10;95657.00;;;;5035344;28;20197;-59
2023/07/30 02:20:57;;;;;;;3.40;0.87;;;;;17.10;95655.00;;;;5035526;28;20195;-58
2023/07/30 02:23:25;;;;;;;0.70;0.70;;;;;17.00;95660.00;;;;5035575;28;20683;-59
2023/07/30 02:25:52;;;;;;;0.50;0.50;;;;;17.20;95668.00;;;;5035235;28;20217;-59
2023/07/30 02:28:21;;;;;;;0.50;0.50;;;;;17.10;95669.00;;;;5035255;28;20197;-59
2023/07/30 02:30:49;;;;;;;0.60;0.60;;;;;17.00;95662.00;;;;5035410;28;20205;-59
2023/07/30 02:33:16;;;;;;;0.97;0.97;;;;;16.80;95670.00;;;;5035499;28;20189;-59
2023/07/30 02:35:45;;;;;;;0.50;0.50;;;;;16.60;95667.00;;;;5035101;28;20707;-58
2023/07/30 02:38:12;;;;;;;0.90;0.90;;;;;16.50;95660.00;;;;5035204;28;20189;-59
2023/07/30 02:40:39;;;;;;;0.67;0.67;;;;;16.40;95664.00;;;;5035271;28;20188;-58
2023/07/30 02:43:07;;;;;;;1.00;1.00;;;;;16.50;95671.00;;;;5035203;28;20553;-58
2023/07/30 02:45:35;;;;;;;0.50;0.50;;;;;16.40;95667.00;;;;5035224;28;20197;-59
2023/07/30 02:48:03;;;;;;;0.80;0.80;;;;;16.50;95675.00;;;;5034926;28;20189;-58
2023/07/30 02:50:30;;;;;;;0.83;0.83;;;;;16.50;95672.00;;;;5034752;28;20307;-58
2023/07/30 02:52:58;;;;;;;12.20;1.27;;;;;16.50;95669.00;;;;5034461;28;20189;-59
2023/07/30 02:55:25;;;;;;;0.40;0.40;;;;;16.50;95670.00;;;;5034550;28;20189;-58
2023/07/30 02:57:53;;;;;;;0.90;0.90;;;;;16.40;95672.00;;;;5034541;28;20208;-58
2023/07/30 03:00:20;;;;;;;0.50;0.50;;;;;16.50;95671.00;;;;5034528;28;20189;-58
2023/07/30 03:02:49;;;;;;;0.70;0.70;;;;;16.50;95673.00;;;;5034474;28;20197;-58
2023/07/30 03:05:17;;;;;;;1.03;1.03;;;;;16.50;95677.00;;;;5034595;28;20197;-58
2023/07/30 03:07:44;;;;;;;0.60;0.60;;;;;16.70;95675.00;;;;5033412;28;20220;-58
2023/07/30 03:10:12;;;;;;;0.57;0.57;;;;;16.70;95663.00;;;;5034711;28;20271;-58
2023/07/30 03:12:39;;;;;;;0.67;0.67;;;;;16.80;95662.00;;;;5035277;28;20648;-58
2023/07/30 03:15:07;;;;;;;0.50;0.50;;;;;16.70;95653.00;;;;5035082;28;20231;-58
2023/07/30 03:17:34;;;;;;;0.50;0.50;;;;;16.80;95657.00;;;;5035041;28;20235;-59
2023/07/30 03:20:04;;;;;;;0.87;0.87;;;;;16.90;95667.00;;;;5034775;28;20276;-58
2023/07/30 03:22:31;;;;;;;0.60;0.60;;;;;16.80;95667.00;;;;5034646;28;20193;-58
2023/07/30 03:24:59;;;;;;;0.50;0.50;;;;;16.90;95675.00;;;;5033254;28;20610;-59
2023/07/30 03:27:26;;;;;;;0.70;0.70;;;;;17.00;95670.00;;;;5033331;28;20225;-57
2023/07/30 03:29:53;;;;;;;0.60;0.60;;;;;17.00;95664.00;;;;5034023;28;20686;-58
2023/07/30 03:32:21;;;;;;;0.77;0.77;;;;;17.00;95673.00;;;;5034323;28;20211;-59
2023/07/30 03:34:48;;;;;;;0.60;0.60;;;;;17.00;95676.00;;;;5034175;28;20222;-58
2023/07/30 03:37:17;;;;;;;0.57;0.57;;;;;17.00;95670.00;;;;5033776;28;20219;-58
2023/07/30 03:39:44;;;;;;;0.70;0.70;;;;;16.90;95670.00;;;;5034154;28;20671;-58
2023/07/30 03:42:12;;;;;;;0.80;0.80;;;;;16.90;95674.00;;;;5033834;28;20664;-58
2023/07/30 03:44:39;;;;;;;0.80;0.80;;;;;16.90;95684.00;;;;5033922;28;20193;-58
2023/07/30 03:47:06;;;;;;;0.73;0.73;;;;;16.80;95683.00;;;;5033876;28;20659;-59
2023/07/30 03:49:34;;;;;;;0.50;0.50;;;;;16.80;95682.00;;;;5033911;28;20216;-58
2023/07/30 03:52:01;;;;;;;0.83;0.83;;;;;16.80;95682.00;;;;5033798;28;20209;-58
2023/07/30 03:54:30;;;;;;;0.63;0.63;;;;;16.80;95678.00;;;;5033668;28;20250;-58
2023/07/30 03:56:58;;;;;;;1.00;0.97;;;;;16.80;95682.00;;;;5033481;28;20215;-58
2023/07/30 03:59:25;;;;;;;0.60;0.60;;;;;16.80;95685.00;;;;5034359;28;20193;-58
2023/07/30 04:01:52;;;;;;;0.40;0.40;;;;;16.70;95689.00;;;;5033785;28;20548;-58
2023/07/30 04:04:20;;;;;;;0.77;0.77;;;;;16.80;95684.00;;;;5033927;28;20193;-59
2023/07/30 04:06:47;;;;;;;0.60;0.60;;;;;16.80;95696.00;;;;5032687;28;20287;-59
2023/07/30 04:09:15;;;;;;;0.60;0.60;;;;;16.80;95695.00;;;;5033514;28;20228;-58
2023/07/30 04:11:43;;;;;;;0.60;0.60;;;;;16.80;95701.00;;;;5033554;28;20193;-58
2023/07/30 04:14:11;;;;;;;1.07;1.07;;;;;16.80;95697.00;;;;5033788;28;20200;-58
2023/07/30 04:16:38;;;;;;;0.53;0.53;;;;;16.80;95695.00;;;;5033276;28;20560;-58
2023/07/30 04:19:06;;;;;;;0.80;0.80;;;;;16.70;95686.00;;;;5033431;28;20197;-58
2023/07/30 04:21:33;;;;;;;0.70;0.70;;;;;16.70;95697.00;;;;5033656;28;20544;-58
2023/07/30 04:24:01;;;;;;;1.87;1.77;;;;;16.70;95698.00;;;;5033403;28;20189;-59
2023/07/30 04:26:28;;;;;;;0.53;0.53;;;;;16.70;95692.00;;;;5033287;28;20287;-58
2023/07/30 04:28:57;;;;;;;0.50;0.50;;;;;16.90;95706.00;;;;5033846;28;20243;-58
2023/07/30 04:31:24;;;;;;;0.57;0.57;;;;;16.80;95701.00;;;;5033224;28;20197;-61
2023/07/30 04:33:52;;;;;;;0.60;0.60;;;;;16.90;95701.00;;;;5033895;28;20192;-58
2023/07/30 04:36:19;;;;;;;0.73;0.73;;;;;16.90;95709.00;;;;5033251;28;20213;-58
2023/07/30 04:38:47;;;;;;;0.50;0.50;;;;;17.00;95717.00;;;;5033450;28;20698;-58
2023/07/30 04:41:14;;;;;;;0.53;0.53;;;;;17.00;95720.00;;;;5033220;28;20185;-58
2023/07/30 04:43:41;;;;;;;0.60;0.60;;;;;17.00;95725.00;;;;5033332;28;20193;-57
2023/07/30 04:46:10;;;;;;;0.50;0.50;;;;;17.00;95727.00;;;;5033388;28;20220;-59
2023/07/30 04:48:38;;;;;;;0.50;0.50;;;;;17.10;95721.00;;;;5033150;28;20198;-57
2023/07/30 04:51:06;;;;;;;0.60;0.60;;;;;17.00;95730.00;;;;5033452;28;20212;-57
2023/07/30 04:53:33;;;;;;;0.40;0.40;;;;;17.10;95728.00;;;;5033461;28;20195;-57
2023/07/30 04:56:00;;;;;;;0.50;0.50;;;;;17.10;95727.00;;;;5031611;28;20675;-58
2023/07/30 04:58:28;;;;;;;0.47;0.47;;;;;17.10;95743.00;;;;5032947;28;20603;-58
2023/07/30 05:00:55;;;;;;;0.60;0.60;;;;;17.10;95740.00;;;;5033218;28;20193;-58
2023/07/30 05:03:24;;;;;;;0.60;0.60;;;;;17.10;95731.00;;;;5033753;28;20189;-58
2023/07/30 05:05:51;;;;;;;0.67;0.67;;;;;17.10;95737.00;;;;5034088;28;20220;-60
2023/07/30 05:08:19;;;;;;;0.70;0.70;;;;;17.10;95733.00;;;;5032315;28;20201;-58
2023/07/30 05:10:46;;;;;;;0.50;0.50;;;;;17.10;95739.00;;;;5033444;28;20220;-59
2023/07/30 05:13:14;;;;;;;1.10;1.00;;;;;17.10;95744.00;;;;5031856;28;20200;-57
2023/07/30 05:15:41;;;;;;;0.93;0.93;;;;;17.20;95742.00;;;;5033181;28;20215;-57
2023/07/30 05:18:09;;;;;;;0.50;0.50;;;;;17.20;95745.00;;;;5035999;28;20204;-59
2023/07/30 05:20:37;;;;;;;0.60;0.60;;;;;17.20;95739.00;;;;5036636;28;20197;-57
2023/07/30 05:23:06;;;;;;;0.50;0.50;;;;;17.20;95746.00;;;;5035736;28;20675;-57
2023/07/30 05:25:34;;;;;;;0.50;0.50;;;;;17.30;95748.00;;;;5037040;28;20221;-57
2023/07/30 05:28:01;;;;;;;0.50;0.50;;;;;17.20;95747.00;;;;5035366;28;20599;-58
2023/07/30 05:30:29;;;;;;;0.60;0.60;;;;;17.20;95747.00;;;;5036401;28;20220;-58
2023/07/30 05:32:56;;;;;;;0.93;0.93;;;;;17.20;95752.00;;;;5036557;28;20701;-58
2023/07/30 05:35:24;;;;;;;0.40;0.40;;;;;17.20;95743.00;;;;5035252;28;20201;-57
2023/07/30 05:37:53;;;;;;;0.50;0.50;;;;;17.20;95745.00;;;;5035001;28;20220;-58
2023/07/30 05:40:20;;;;;;;0.50;0.50;;;;;17.30;95730.00;;;;5036238;28;20212;-58
2023/07/30 05:42:47;;;;;;;0.60;0.60;;;;;17.40;95727.00;;;;5036192;28;20613;-57
2023/07/30 05:45:15;;;;;;;0.50;0.50;;;;;17.50;95727.00;;;;5034773;28;20197;-57
2023/07/30 05:47:43;;;;;;;0.50;0.50;;;;;17.70;95739.00;;;;5036306;28;20577;-57
2023/07/30 05:50:10;;;;;;;0.43;0.43;;;;;17.50;95747.00;;;;5035815;28;20220;-57
2023/07/30 05:52:38;;;;;;;0.50;0.50;;;;;17.70;95751.00;;;;5035897;28;20197;-57
2023/07/30 05:55:08;;;;;;;0.53;0.53;;;;;17.60;95754.00;;;;5036041;28;20189;-58
2023/07/30 05:57:35;;;;;;;0.80;0.80;;;;;17.50;95739.00;;;;5035752;28;20287;-58
2023/07/30 06:00:03;;;;;;;0.80;0.80;;;;;17.60;95744.00;;;;5034530;28;20562;-58
2023/07/30 06:02:30;;;;;;;0.63;0.63;;;;;17.70;95741.00;;;;5036144;28;20288;-58
2023/07/30 06:04:58;;;;;;;0.53;0.53;;;;;17.80;95717.00;;;;5035898;28;20204;-58
2023/07/30 06:07:25;;;;;;;0.70;0.70;;;;;17.80;95714.00;;;;5035941;28;20581;-59
2023/07/30 06:09:53;;;;;;;0.83;0.83;;;;;17.80;95716.00;;;;5035472;28;20270;-59
2023/07/30 06:12:21;;;;;;;1.17;0.90;;;;;17.90;95710.00;;;;5035560;28;20193;-59
2023/07/30 06:14:49;;;;;;;0.60;0.60;;;;;18.40;95727.00;;;;5035552;28;20192;-59
2023/07/30 06:17:16;;;;;;;0.70;0.70;;;;;18.20;95742.00;;;;5035518;28;20217;-56
2023/07/30 06:19:44;;;;;;;0.60;0.60;;;;;18.10;95740.00;;;;5034347;28;20604;-58
2023/07/30 06:22:11;;;;;;;0.70;0.70;;;;;18.30;95739.00;;;;5035117;28;20628;-57
2023/07/30 06:24:39;;;;;;;0.60;0.60;;;;;18.30;95742.00;;;;5035092;28;20216;-58
2023/07/30 06:27:09;;;;;;;0.40;0.40;;;;;17.80;95754.00;;;;5035011;28;20232;-57
2023/07/30 06:29:38;;;;;;;0.70;0.70;;;;;17.80;95760.00;;;;5034434;28;20181;-57
2023/07/30 06:32:06;;;;;;;0.90;0.90;;;;;17.90;95757.00;;;;5035144;28;20192;-57
2023/07/30 06:34:34;;;;;;;0.50;0.50;;;;;17.90;95760.00;;;;5034957;28;20193;-58
2023/07/30 06:37:01;;;;;;;0.60;0.60;;;;;17.90;95755.00;;;;5034955;28;20695;-57
2023/07/30 06:39:28;;;;;;;0.60;0.60;;;;;17.80;95765.00;;;;5034964;28;20196;-59
2023/07/30 06:41:56;;;;;;;0.53;0.53;;;;;17.80;95777.00;;;;5034855;28;20200;-57
2023/07/30 06:44:25;;;;;;;0.70;0.70;;;;;17.80;95775.00;;;;5035562;28;20199;-57
2023/07/30 06:46:54;;;;;;;0.53;0.53;;;;;17.70;95777.00;;;;5035354;28;20227;-57
2023/07/30 06:49:21;;;;;;;0.70;0.70;;;;;17.70;95782.00;;;;5035026;28;20725;-58
2023/07/30 06:51:49;;;;;;;0.50;0.50;;;;;17.70;95800.00;;;;5034631;28;20212;-58
2023/07/30 06:54:16;;;;;;;0.40;0.40;;;;;17.90;95810.00;;;;5034940;28;20581;-58
2023/07/30 06:56:43;;;;;;;0.63;0.63;;;;;17.70;95813.00;;;;5034962;28;20570;-58
2023/07/30 06:59:11;;;;;;;0.70;0.70;;;;;17.70;95829.00;;;;5034877;28;20656;-58
2023/07/30 07:01:38;;;;;;;0.53;0.53;;;;;17.40;95814.00;;;;5034612;28;20196;-58
2023/07/30 07:04:07;;;;;;;0.50;0.50;;;;;17.20;95814.00;;;;5034707;28;20554;-57
2023/07/30 07:06:35;;;;;;;0.70;0.70;;;;;17.40;95810.00;;;;5034203;28;20575;-57
2023/07/30 07:09:03;;;;;;;1.10;0.97;;;;;17.50;95802.00;;;;5034919;28;20197;-58
2023/07/30 07:11:30;;;;;;;0.80;0.80;;;;;17.70;95806.00;;;;5034725;28;20217;-58
2023/07/30 07:13:57;;;;;;;0.40;0.40;;;;;18.00;95785.00;;;;5036582;28;20227;-58
2023/07/30 07:16:25;;;;;;;0.40;0.40;;;;;18.20;95794.00;;;;5037832;28;20259;-58
2023/07/30 07:18:52;;;;;;;0.30;0.30;;;;;18.20;95811.00;;;;5037160;28;20277;-58
2023/07/30 07:21:21;;;;;;;0.50;0.50;;;;;18.10;95817.00;;;;5037143;28;20671;-59
2023/07/30 07:23:49;;;;;;;0.60;0.60;;;;;17.80;95821.00;;;;5036744;28;20188;-58
2023/07/30 07:26:16;;;;;;;0.60;0.60;;;;;17.70;95827.00;;;;5034619;28;20239;-58
2023/07/30 07:28:44;;;;;;;0.50;0.50;;;;;17.70;95818.00;;;;5034106;28;20667;-58
2023/07/30 07:31:11;;;;;;;0.37;0.37;;;;;17.80;95821.00;;;;5034476;28;20220;-57
2023/07/30 07:33:39;;;;;;;0.63;0.63;;;;;17.80;95820.00;;;;5036284;28;20220;-59
2023/07/30 07:36:07;;;;;;;0.40;0.40;;;;;18.00;95824.00;;;;5035142;28;20221;-57
2023/07/30 07:38:36;;;;;;;0.53;0.53;;;;;18.00;95819.00;;;;5033951;28;20199;-57
2023/07/30 07:41:04;;;;;;;0.50;0.50;;;;;18.30;95823.00;;;;5033527;28;20193;-57
2023/07/30 07:43:31;;;;;;;0.60;0.60;;;;;18.40;95820.00;;;;5034197;28;20547;-57
2023/07/30 07:45:59;;;;;;;0.40;0.40;;;;;18.60;95821.00;;;;5033595;28;20677;-57
2023/07/30 07:48:26;;;;;;;0.40;0.40;;;;;18.90;95828.00;;;;5033751;28;20663;-57
2023/07/30 07:50:53;;;;;;;0.30;0.30;;;;;19.00;95818.00;;;;5033486;28;20236;-58
2023/07/30 07:53:21;;;;;;;0.67;0.67;;;;;19.30;95823.00;;;;5034558;28;20197;-59
2023/07/30 07:55:50;;;;;;;0.50;0.50;;;;;18.90;95821.00;;;;5034012;28;20326;-57
2023/07/30 07:58:17;;;;;;;0.50;0.50;;;;;19.00;95821.00;;;;5034084;28;20217;-57
2023/07/30 08:00:45;;;;;;;0.80;0.80;;;;;19.20;95818.00;;;;5034896;28;20200;-57
2023/07/30 08:03:12;;;;;;;0.50;0.50;;;;;19.50;95804.00;;;;5034602;28;20204;-57
2023/07/30 08:05:40;;;;;;;0.73;0.73;;;;;19.80;95804.00;;;;5033631;28;20197;-57
2023/07/30 08:08:07;;;;;;;0.30;0.30;;;;;20.00;95814.00;;;;5033598;28;20208;-57
2023/07/30 08:10:39;;;;;;;0.40;0.40;;;;;20.20;95819.00;;;;5033664;28;20217;-57
2023/07/30 08:13:07;;;;;;;0.60;0.60;;;;;20.20;95817.00;;;;5033293;28;20181;-57
2023/07/30 08:15:35;;;;;;;0.63;0.63;;;;;20.20;95806.00;;;;5033154;28;20675;-57
2023/07/30 08:18:02;;;;;;;0.70;0.70;;;;;20.20;95811.00;;;;5033078;28;20207;-57
2023/07/30 08:20:30;;;;;;;0.53;0.53;;;;;20.00;95814.00;;;;5033106;28;20193;-57
2023/07/30 08:22:57;;;;;;;0.40;0.40;;;;;19.90;95816.00;;;;5033080;28;20553;-57
2023/07/30 08:25:25;;;;;;;0.53;0.53;;;;;19.80;95821.00;;;;5033375;28;20201;-57
2023/07/30 08:27:52;;;;;;;0.50;0.50;;;;;19.80;95808.00;;;;5033501;28;20236;-57
2023/07/30 08:30:21;;;;;;;0.40;0.40;;;;;19.80;95808.00;;;;5033798;28;20557;-57
2023/07/30 08:32:48;;;;;;;0.60;0.60;;;;;19.70;95796.00;;;;5033029;28;20196;-57
2023/07/30 08:35:16;;;;;;;0.60;0.60;;;;;19.20;95824.00;;;;5033084;28;20200;-57
2023/07/30 08:37:43;;;;;;;0.70;0.70;;;;;19.20;95825.00;;;;5033431;28;20209;-57
2023/07/30 08:40:12;;;;;;;0.70;0.70;;;;;19.20;95828.00;;;;5033324;28;20219;-57
2023/07/30 08:42:39;;;;;;;0.57;0.57;;;;;19.30;95822.00;;;;5032050;28;20193;-57
2023/07/30 08:45:08;;;;;;;0.40;0.40;;;;;19.50;95826.00;;;;5033328;28;20215;-59
2023/07/30 08:47:38;;;;;;;0.90;0.90;;;;;19.10;95832.00;;;;5032829;28;20259;-59
2023/07/30 08:50:07;;;;;;;1.20;1.17;;;;;19.20;95837.00;;;;5033323;28;20261;-59
2023/07/30 08:52:36;;;;;;;0.50;0.50;;;;;19.00;95841.00;;;;5035270;28;20270;-58
2023/07/30 08:55:05;;;;;;;0.40;0.40;;;;;19.30;95844.00;;;;5036855;28;20189;-58
2023/07/30 08:57:32;;;;;;;0.67;0.63;;;;;18.90;95840.00;;;;5036862;28;20224;-57
2023/07/30 09:00:05;;;;;;;0.70;0.70;;;;;18.80;95840.00;;;;5036698;28;20197;-57
2023/07/30 09:02:38;;;;;;;0.40;0.40;;;;;18.90;95851.00;;;;5036656;28;20173;-57
2023/07/30 09:05:07;;;;;;;0.77;0.77;;;;;18.90;95853.00;;;;5036647;28;20182;-57
2023/07/30 09:07:34;;;;;;;0.60;0.60;;;;;18.70;95846.00;;;;5036675;28;20626;-59
2023/07/30 09:10:02;;;;;;;0.77;0.77;;;;;18.80;95847.00;;;;5036853;28;20199;-59
2023/07/30 09:12:31;;;;;;;0.67;0.67;;;;;18.80;95860.00;;;;5036444;28;20592;-59
2023/07/30 09:14:59;;;;;;;0.80;0.80;;;;;18.70;95869.00;;;;5036791;28;20283;-59
2023/07/30 09:17:26;;;;;;;0.47;0.47;;;;;18.30;95865.00;;;;5036315;28;20287;-58
2023/07/30 09:19:55;;;;;;;0.87;0.87;;;;;18.40;95868.00;;;;5036602;28;20199;-59
2023/07/30 09:22:26;;;;;;;0.40;0.40;;;;;18.30;95861.00;;;;5036596;28;20185;-58
2023/07/30 09:24:54;;;;;;;0.50;0.50;;;;;18.60;95863.00;;;;5036432;28;20181;-59
2023/07/30 09:27:25;;;;;;;0.40;0.40;;;;;18.50;95869.00;;;;5036684;28;20220;-58
2023/07/30 09:29:53;;;;;;;0.70;0.70;;;;;18.70;95853.00;;;;5035052;28;20570;-59
2023/07/30 09:32:21;;;;;;;0.90;0.90;;;;;18.70;95849.00;;;;5036283;28;20217;-59
2023/07/30 09:34:49;;;;;;;0.50;0.50;;;;;18.70;95859.00;;;;5036375;28;20655;-59
2023/07/30 09:37:18;;;;;;;0.63;0.63;;;;;18.60;95855.00;;;;5035978;28;20680;-59
2023/07/30 09:39:48;;;;;;;0.50;0.50;;;;;19.00;95852.00;;;;5036059;28;20193;-59
2023/07/30 09:42:15;;;;;;;0.50;0.50;;;;;19.10;95862.00;;;;5035975;28;20723;-59
2023/07/30 09:44:43;;;;;;;0.63;0.63;;;;;18.70;95870.00;;;;5034632;28;20200;-59
2023/07/30 09:47:11;;;;;;;0.40;0.40;;;;;18.70;95855.00;;;;5035984;28;20212;-58
2023/07/30 09:49:41;;;;;;;0.60;0.60;;;;;18.70;95859.00;;;;5036295;28;20197;-58
2023/07/30 09:52:10;;;;;;;0.40;0.40;;;;;18.80;95873.00;;;;5035903;28;20632;-58
2023/07/30 09:54:40;;;;;;;0.93;0.93;;;;;19.20;95865.00;;;;5035757;28;20197;-58
2023/07/30 09:57:08;;;;;;;1.20;1.20;;;;;19.70;95864.00;;;;5035646;28;20217;-58
2023/07/30 09:59:35;;;;;;;0.80;0.80;;;;;20.10;95858.00;;;;5035984;28;20264;-58
2023/07/30 10:02:03;;;;;;;0.70;0.70;;;;;20.10;95852.00;;;;5035662;28;20188;-59
2023/07/30 10:04:33;;;;;;;18.07;0.80;;;;;20.10;95860.00;;;;5034419;28;20275;-58
2023/07/30 10:07:07;;;;;;;0.60;0.60;;;;;19.60;95886.00;;;;5035761;28;20216;-58
2023/07/30 10:09:43;;;;;;;0.60;0.60;;;;;19.30;95901.00;;;;5035951;28;20180;-58
2023/07/30 10:12:14;;;;;;;0.47;0.47;;;;;19.30;95886.00;;;;5035923;28;20612;-58
2023/07/30 10:14:43;;;;;;;2.30;1.53;;;;;19.20;95894.00;;;;5035753;28;20215;-58
2023/07/30 10:17:12;;;;;;;0.70;0.70;;;;;19.00;95896.00;;;;5035415;28;20283;-58
2023/07/30 10:19:39;;;;;;;0.63;0.63;;;;;19.40;95898.00;;;;5035257;28;20192;-58
2023/07/30 10:22:24;;;;;;;0.90;0.90;;;;;19.00;95891.00;;;;5035401;28;20181;-58
2023/07/30 10:25:00;;;;;;;0.57;0.57;;;;;19.10;95919.00;;;;5035314;28;20185;-58
2023/07/30 10:27:39;;;;;;;0.90;0.90;;;;;19.00;95917.00;;;;5035259;28;20216;-58
2023/07/30 10:30:11;;;;;;;1.43;1.43;;;;;19.20;95884.00;;;;5035349;28;20189;-58
2023/07/30 10:32:42;;;;;;;0.73;0.73;;;;;19.40;95893.00;;;;5035165;28;20223;-58
2023/07/30 10:35:21;;;;;;;0.97;0.97;;;;;19.60;95889.00;;;;5035695;28;20208;-60
2023/07/30 10:37:49;;;;;;;1.17;1.10;;;;;19.40;95902.00;;;;5034975;28;20785;-58
2023/07/30 10:40:21;;;;;;;0.57;0.57;;;;;19.70;95868.00;;;;5035173;28;20225;-58
2023/07/30 10:42:49;;;;;;;0.43;0.43;;;;;20.30;95896.00;;;;5034929;28;20195;-58
2023/07/30 10:45:16;;;;;;;4.80;1.00;;;;;20.20;95895.00;;;;5034864;28;20558;-59
2023/07/30 10:47:44;;;;;;;0.50;0.50;;;;;20.00;95878.00;;;;5034799;28;20212;-59
2023/07/30 10:50:13;;;;;;;0.63;0.63;;;;;20.20;95895.00;;;;5034765;28;20196;-58
2023/07/30 10:52:40;;;;;;;0.50;0.50;;;;;20.30;95910.00;;;;5034876;28;20303;-58
2023/07/30 10:55:08;;;;;;;0.50;0.50;;;;;19.80;95898.00;;;;5034668;28;20192;-58
2023/07/30 10:57:40;;;;;;;0.40;0.40;;;;;19.80;95921.00;;;;5034430;28;20236;-58
2023/07/30 11:00:08;;;;;;;1.00;0.93;;;;;19.70;95902.00;;;;5033423;28;20193;-58
2023/07/30 11:02:36;;;;;;;0.50;0.50;;;;;20.10;95904.00;;;;5034534;28;20200;-58
2023/07/30 11:05:13;;;;;;;0.60;0.60;;;;;20.50;95901.00;;;;5034992;28;20192;-58
2023/07/30 11:07:49;;;;;;;0.67;0.67;;;;;20.30;95885.00;;;;5034528;28;20703;-58
2023/07/30 11:10:17;;;;;;;0.70;0.70;;;;;20.10;95874.00;;;;5034414;28;20224;-58
2023/07/30 11:12:46;;;;;;;1.40;1.07;;;;;20.70;95864.00;;;;5034642;28;20227;-58
2023/07/30 11:15:14;;;;;;;0.90;0.90;;;;;20.70;95894.00;;;;5033805;28;20193;-59
2023/07/30 11:17:41;;;;;;;0.60;0.60;;;;;20.60;95901.00;;;;5034174;28;20234;-58
2023/07/30 11:20:22;;;;;;;0.57;0.57;;;;;20.20;95903.00;;;;5034426;28;20197;-57
2023/07/30 11:22:50;;;;;;;0.60;0.60;;;;;20.40;95900.00;;;;5034539;28;20602;-59
2023/07/30 11:25:20;;;;;;;1.20;0.67;;;;;20.10;95898.00;;;;5034328;28;20227;-59
2023/07/30 11:27:50;;;;;;;0.60;0.60;;;;;20.20;95898.00;;;;5034023;28;20785;-59
2023/07/30 11:30:18;;;;;;;0.50;0.50;;;;;20.40;95878.00;;;;5033955;28;20200;-58
2023/07/30 11:32:47;;;;;;;0.60;0.60;;;;;20.60;95911.00;;;;5034462;28;20216;-58
2023/07/30 11:35:16;;;;;;;0.67;0.67;;;;;20.30;95905.00;;;;5034263;28;20660;-58
2023/07/30 11:37:45;;;;;;;0.47;0.47;;;;;20.20;95927.00;;;;5033967;28;20235;-57
2023/07/30 11:40:13;;;;;;;0.80;0.80;;;;;20.50;95902.00;;;;5034094;28;20197;-57
2023/07/30 11:42:42;;;;;;;0.73;0.73;;;;;20.40;95910.00;;;;5033831;28;20204;-57
2023/07/30 11:45:21;;;;;;;0.60;0.60;;;;;20.10;95901.00;;;;5033919;28;20272;-58
2023/07/30 11:47:49;;;;;;;1.30;0.87;;;;;20.20;95914.00;;;;5033604;28;20222;-58
2023/07/30 11:50:17;;;;;;;1.17;1.13;;;;;20.40;95927.00;;;;5033553;28;20730;-58
2023/07/30 11:52:57;;;;;;;0.90;0.90;;;;;19.90;95931.00;;;;5033483;28;20220;-58
2023/07/30 11:55:37;;;;;;;0.70;0.70;;;;;19.80;95933.00;;;;5033501;28;20243;-58
2023/07/30 11:58:05;;;;;;;0.73;0.73;;;;;20.20;95904.00;;;;5034125;28;20211;-58
2023/07/30 12:00:34;;;;;;;0.87;0.87;;;;;20.50;95907.00;;;;5034989;28;20216;-58
2023/07/30 12:03:04;;;;;;;0.97;0.90;;;;;20.10;95908.00;;;;5034218;28;20211;-58
2023/07/30 12:05:35;;;;;;;0.93;0.93;;;;;20.70;95915.00;;;;5034575;28;20197;-58
2023/07/30 12:08:03;;;;;;;0.80;0.80;;;;;21.00;95909.00;;;;5034390;28;20193;-58
2023/07/30 12:10:44;;;;;;;0.80;0.80;;;;;21.10;95934.00;;;;5033377;28;20204;-58
2023/07/30 12:13:18;;;;;;;0.80;0.80;;;;;21.10;95930.00;;;;5033779;28;20200;-58
2023/07/30 12:15:53;;;;;;;1.10;0.90;;;;;21.40;95948.00;;;;5033753;28;20191;-59
2023/07/30 12:18:21;;;;;;;0.90;0.90;;;;;20.90;95930.00;;;;5034052;28;20180;-58
2023/07/30 12:20:50;;;;;;;1.10;1.10;;;;;20.50;95953.00;;;;5034169;28;20215;-58
2023/07/30 12:23:17;;;;;;;0.47;0.47;;;;;20.20;95914.00;;;;5033826;28;20196;-59